Time;durP1;ratioP1;P1;durP2;ratioP2;P2;SDS_P1;SDS_P2;PMS_P1;PMS_P2;Temp;Humidity;BMP_temperature;BMP_pressure;BME280_temperature;BME280_humidity;BME280_pressure;Samples;Min_cycle;Max_cycle;Signal;HPM_P1;HPM_P2
2023/06/07 00:00:49;;;;;;;3.53;3.20;;;17.70;75.80;;;;;;10231508;28;20642;-71
2023/06/07 00:05:50;;;;;;;3.93;3.07;;;17.70;75.90;;;;;;10232582;28;20298;-70
2023/06/07 00:10:53;;;;;;;4.83;3.03;;;17.80;75.90;;;;;;10219865;28;20226;-71
2023/06/07 00:15:54;;;;;;;4.93;2.60;;;17.90;76.00;;;;;;10231966;28;20672;-71
2023/06/07 00:20:57;;;;;;;6.83;3.00;;;17.90;75.80;;;;;;10222266;28;20223;-70
2023/06/07 00:25:59;;;;;;;5.03;2.43;;;18.00;76.00;;;;;;10229677;28;20597;-71
2023/06/07 00:31:03;;;;;;;3.53;2.47;;;18.00;76.00;;;;;;10211538;28;20345;-72
2023/06/07 00:36:05;;;;;;;3.40;2.67;;;18.10;76.40;;;;;;10220672;28;20232;-71
2023/06/07 00:41:05;;;;;;;5.07;2.50;;;18.10;76.60;;;;;;10221502;28;20759;-72
2023/06/07 00:46:06;;;;;;;3.43;2.90;;;18.10;76.80;;;;;;10217624;28;20227;-70
2023/06/07 00:51:07;;;;;;;4.77;2.97;;;18.10;76.80;;;;;;10223548;28;20223;-70
2023/06/07 00:56:08;;;;;;;3.70;2.40;;;18.20;77.10;;;;;;10225461;28;20232;-71
2023/06/07 01:01:09;;;;;;;4.77;2.90;;;18.20;76.90;;;;;;10226244;28;20609;-71
2023/06/07 01:06:10;;;;;;;4.33;2.80;;;18.20;77.10;;;;;;10232668;28;20310;-71
2023/06/07 01:11:12;;;;;;;3.90;2.43;;;18.20;77.70;;;;;;10227330;28;20223;-70
2023/06/07 01:16:13;;;;;;;3.77;2.60;;;18.20;77.90;;;;;;10231877;28;20227;-71
2023/06/07 01:21:19;;;;;;;4.20;2.63;;;18.20;78.60;;;;;;10229713;28;20227;-70
2023/06/07 01:26:20;;;;;;;3.40;2.70;;;18.10;78.50;;;;;;10232168;28;20310;-70
2023/06/07 01:31:25;;;;;;;4.13;2.70;;;18.10;78.60;;;;;;10229610;28;20341;-70
2023/06/07 01:36:26;;;;;;;2.70;2.50;;;18.00;79.60;;;;;;10237052;28;20851;-71
2023/06/07 01:41:34;;;;;;;3.57;2.77;;;18.00;79.70;;;;;;10229796;28;20231;-71
2023/06/07 01:46:35;;;;;;;3.83;2.70;;;17.90;80.10;;;;;;10229461;28;20223;-70
2023/06/07 01:51:36;;;;;;;2.57;2.37;;;17.80;80.70;;;;;;10223106;28;20306;-71
2023/06/07 01:57:08;;;;;;;3.03;2.60;;;17.80;81.30;;;;;;10235655;28;20323;-70
2023/06/07 02:02:32;;;;;;;2.90;2.60;;;17.80;81.60;;;;;;10223386;28;20278;-70
2023/06/07 02:07:41;;;;;;;3.63;2.90;;;17.70;82.10;;;;;;10236099;28;20227;-70
2023/06/07 02:12:42;;;;;;;3.70;2.90;;;17.50;82.50;;;;;;10219318;28;20224;-71
2023/06/07 02:18:01;;;;;;;4.10;3.00;;;17.30;83.30;;;;;;10227525;28;20224;-71
2023/06/07 02:23:02;;;;;;;5.87;3.10;;;17.10;84.40;;;;;;10223112;28;20219;-71
2023/06/07 02:28:02;;;;;;;4.27;2.80;;;16.90;85.50;;;;;;10227712;28;20227;-70
2023/06/07 02:33:04;;;;;;;5.07;3.20;;;16.90;85.40;;;;;;10234072;28;20597;-70
2023/06/07 02:38:05;;;;;;;5.37;3.57;;;16.80;85.90;;;;;;10225266;28;20219;-71
2023/06/07 02:43:06;;;;;;;6.03;3.30;;;16.80;86.40;;;;;;10221660;28;20289;-70
2023/06/07 02:48:07;;;;;;;6.67;3.50;;;16.80;86.60;;;;;;10224958;28;20335;-71
2023/06/07 02:53:07;;;;;;;4.83;3.23;;;16.70;87.10;;;;;;10221272;28;20234;-71
2023/06/07 02:58:08;;;;;;;4.77;3.00;;;16.60;87.40;;;;;;10224603;28;20272;-70
2023/06/07 03:03:08;;;;;;;4.73;2.80;;;16.60;87.70;;;;;;10221141;28;20223;-71
2023/06/07 03:08:10;;;;;;;3.87;3.10;;;16.60;88.30;;;;;;10224118;28;20707;-70
2023/06/07 03:13:11;;;;;;;5.83;2.93;;;16.60;88.90;;;;;;10226003;28;20306;-71
2023/06/07 03:18:17;;;;;;;4.07;3.20;;;16.60;89.20;;;;;;10221839;28;20215;-71
2023/06/07 03:23:17;;;;;;;6.30;3.23;;;16.60;89.70;;;;;;10227894;28;20215;-71
2023/06/07 03:28:18;;;;;;;6.97;3.57;;;16.50;90.10;;;;;;10232228;28;20227;-71
2023/06/07 03:33:18;;;;;;;3.43;3.13;;;16.50;90.60;;;;;;10222420;28;20228;-70
2023/06/07 03:38:20;;;;;;;4.53;3.00;;;16.50;90.80;;;;;;10221336;28;20215;-71
2023/06/07 03:43:23;;;;;;;8.03;2.87;;;16.60;91.00;;;;;;10231598;28;20219;-72
2023/06/07 03:48:24;;;;;;;4.13;2.83;;;16.70;91.10;;;;;;10224698;28;20642;-70
2023/06/07 03:53:24;;;;;;;7.60;3.00;;;16.70;91.40;;;;;;10217505;28;20243;-71
2023/06/07 03:58:25;;;;;;;4.40;2.60;;;16.70;91.50;;;;;;10233806;28;20212;-73
2023/06/07 04:03:27;;;;;;;4.27;2.80;;;16.80;91.80;;;;;;10221417;28;20223;-71
2023/06/07 04:08:28;;;;;;;4.27;2.73;;;16.90;92.00;;;;;;10226008;28;20585;-71
2023/06/07 04:13:28;;;;;;;4.17;3.40;;;17.10;92.00;;;;;;10221806;28;20288;-71
2023/06/07 04:18:29;;;;;;;5.97;2.90;;;17.30;92.00;;;;;;10218841;28;20220;-71
2023/06/07 04:23:29;;;;;;;6.17;3.80;;;17.60;91.50;;;;;;10235589;28;20215;-72
2023/06/07 04:28:30;;;;;;;7.73;3.63;;;17.90;91.20;;;;;;10216282;28;20657;-71
2023/06/07 04:33:32;;;;;;;4.97;2.97;;;18.10;90.50;;;;;;10226193;28;20598;-71
2023/06/07 04:38:32;;;;;;;8.30;2.80;;;18.30;90.20;;;;;;10228660;28;20311;-70
2023/06/07 04:43:35;;;;;;;3.07;2.70;;;18.70;89.30;;;;;;10224209;28;20330;-70
2023/06/07 04:48:40;;;;;;;4.60;2.83;;;18.70;87.70;;;;;;10218036;28;20228;-71
2023/06/07 04:53:42;;;;;;;3.03;2.70;;;18.80;87.90;;;;;;10230147;28;20239;-71
2023/06/07 04:58:43;;;;;;;6.07;2.40;;;18.90;88.00;;;;;;10224670;28;20228;-71
2023/06/07 05:03:44;;;;;;;6.73;3.33;;;19.10;88.00;;;;;;10230921;28;20231;-70
2023/06/07 05:08:45;;;;;;;5.40;3.03;;;19.30;87.40;;;;;;10216744;28;20330;-70
2023/06/07 05:13:46;;;;;;;4.50;3.40;;;19.30;88.60;;;;;;10228358;28;20234;-72
2023/06/07 05:18:50;;;;;;;6.53;3.53;;;19.40;88.00;;;;;;10230085;28;20265;-72
2023/06/07 05:23:51;;;;;;;7.53;3.93;;;19.40;86.00;;;;;;10218919;28;20232;-70
2023/06/07 05:28:52;;;;;;;7.87;3.30;;;19.40;86.00;;;;;;10223657;28;20380;-71
2023/06/07 05:33:53;;;;;;;8.43;3.40;;;19.30;86.00;;;;;;10224186;28;20732;-72
2023/06/07 05:38:53;;;;;;;4.73;3.40;;;19.70;85.20;;;;;;10228382;28;20365;-70
2023/06/07 05:43:54;;;;;;;9.40;3.50;;;19.90;84.50;;;;;;10236652;28;20274;-70
2023/06/07 05:48:54;;;;;;;8.60;3.00;;;20.20;83.40;;;;;;10234644;28;20269;-71
2023/06/07 05:53:55;;;;;;;11.17;3.67;;;20.50;82.50;;;;;;10239040;28;20219;-71
2023/06/07 05:58:56;;;;;;;8.03;2.93;;;20.90;81.30;;;;;;10212872;28;20316;-71
2023/06/07 06:04:03;;;;;;;10.73;3.47;;;21.10;79.10;;;;;;10235398;28;20231;-71
2023/06/07 06:09:04;;;;;;;13.63;3.50;;;21.70;77.60;;;;;;10227081;28;20232;-71
2023/06/07 06:14:05;;;;;;;8.53;3.27;;;22.40;75.40;;;;;;10235183;28;20223;-71
2023/06/07 06:19:06;;;;;;;7.10;2.90;;;22.70;72.20;;;;;;10226190;28;20220;-71
2023/06/07 06:24:07;;;;;;;5.63;2.40;;;25.10;65.60;;;;;;10223078;28;20293;-71
2023/06/07 06:29:07;;;;;;;3.67;2.87;;;29.00;55.70;;;;;;10226554;28;20223;-71
2023/06/07 06:34:08;;;;;;;4.43;2.90;;;30.80;49.10;;;;;;10228280;28;20679;-71
2023/06/07 06:39:08;;;;;;;5.80;2.93;;;31.50;46.30;;;;;;10229199;28;20224;-70
2023/06/07 06:44:09;;;;;;;5.07;2.57;;;32.50;43.20;;;;;;10225203;28;20285;-71
2023/06/07 06:49:09;;;;;;;5.30;2.40;;;32.70;43.20;;;;;;10228328;28;20742;-71
2023/06/07 06:54:10;;;;;;;2.60;2.40;;;33.30;42.00;;;;;;10224570;28;20228;-71
2023/06/07 06:59:11;;;;;;;8.20;2.87;;;34.60;40.90;;;;;;10222077;28;20231;-70
2023/06/07 07:04:12;;;;;;;3.47;2.57;;;35.20;39.10;;;;;;10224977;28;20231;-72
2023/06/07 07:09:13;;;;;;;3.80;2.30;;;35.80;37.70;;;;;;10228498;28;20814;-71
2023/06/07 07:14:14;;;;;;;2.90;2.67;;;34.60;38.10;;;;;;10229772;28;20228;-70
2023/06/07 07:19:14;;;;;;;5.33;2.90;;;34.40;39.20;;;;;;10228444;28;20296;-70
2023/06/07 07:24:15;;;;;;;10.40;2.90;;;34.60;38.30;;;;;;10232343;28;20219;-72
2023/06/07 07:29:16;;;;;;;5.43;2.90;;;34.90;38.40;;;;;;10221721;28;20491;-71
2023/06/07 07:34:16;;;;;;;4.93;3.30;;;34.80;38.30;;;;;;10221101;28;20261;-70
2023/06/07 07:39:17;;;;;;;8.87;3.27;;;35.40;36.60;;;;;;10234003;29;20220;-71
2023/06/07 07:44:18;;;;;;;3.63;2.70;;;35.70;37.60;;;;;;10228807;28;20223;-71
2023/06/07 07:49:19;;;;;;;3.40;2.97;;;37.10;35.80;;;;;;10224758;28;20226;-70
2023/06/07 07:54:21;;;;;;;3.97;2.73;;;38.00;34.30;;;;;;10225560;28;20232;-70
2023/06/07 07:59:22;;;;;;;5.63;3.00;;;36.30;35.80;;;;;;10226926;28;20219;-72
2023/06/07 08:04:22;;;;;;;3.73;2.70;;;35.40;36.80;;;;;;10227749;28;20228;-71
2023/06/07 08:09:23;;;;;;;6.90;3.20;;;34.90;38.00;;;;;;10221005;28;20250;-71
2023/06/07 08:14:23;;;;;;;7.77;3.20;;;33.10;40.40;;;;;;10218738;28;20711;-71
2023/06/07 08:19:26;;;;;;;5.40;3.37;;;31.00;45.00;;;;;;10221339;28;20223;-71
2023/06/07 08:24:26;;;;;;;3.80;3.03;;;29.80;47.30;;;;;;10229335;28;20223;-71
2023/06/07 08:29:27;;;;;;;4.20;3.23;;;29.30;48.20;;;;;;10220227;28;20220;-71
2023/06/07 08:34:28;;;;;;;6.40;3.33;;;29.90;47.30;;;;;;10227583;28;20223;-71
2023/06/07 08:39:28;;;;;;;5.33;3.20;;;31.90;44.30;;;;;;10224908;28;20607;-72
2023/06/07 08:44:30;;;;;;;6.10;3.20;;;31.60;43.70;;;;;;10228034;28;20242;-71
2023/06/07 08:49:36;;;;;;;5.10;2.93;;;34.00;41.60;;;;;;10218213;28;20235;-71
2023/06/07 08:54:45;;;;;;;5.33;4.03;;;35.20;39.50;;;;;;10251807;28;20377;-71
2023/06/07 08:59:48;;;;;;;4.57;4.17;;;32.40;42.60;;;;;;10213964;28;20220;-72
2023/06/07 09:04:48;;;;;;;6.77;3.90;;;32.50;44.00;;;;;;10222778;28;20234;-71
2023/06/07 09:09:49;;;;;;;5.73;3.93;;;33.10;42.10;;;;;;10228804;28;20219;-71
2023/06/07 09:14:51;;;;;;;4.60;4.10;;;32.90;42.90;;;;;;10220627;28;20254;-71
2023/06/07 09:19:51;;;;;;;4.80;4.30;;;32.30;43.90;;;;;;10221748;28;20220;-70
2023/06/07 09:24:55;;;;;;;4.83;4.27;;;31.10;45.00;;;;;;10242184;28;20697;-70
2023/06/07 09:30:04;;;;;;;5.00;4.10;;;30.40;47.10;;;;;;10235994;28;20597;-70
2023/06/07 09:35:30;;;;;;;4.37;3.97;;;30.60;47.20;;;;;;10234790;28;20229;-71
2023/06/07 09:40:31;;;;;;;5.20;4.03;;;30.70;47.10;;;;;;10209948;28;20241;-71
2023/06/07 09:45:32;;;;;;;4.40;3.83;;;30.20;47.80;;;;;;10373769;28;20216;-70
2023/06/07 09:50:33;;;;;;;7.33;4.57;;;30.60;47.20;;;;;;10239358;28;20322;-72
2023/06/07 09:55:33;;;;;;;6.23;5.00;;;30.90;46.50;;;;;;10231615;28;20702;-71
2023/06/07 10:00:42;;;;;;;5.73;4.37;;;30.00;47.60;;;;;;10221001;28;20282;-72
2023/06/07 10:05:46;;;;;;;8.03;5.37;;;29.00;49.90;;;;;;10228290;28;20321;-72
2023/06/07 10:10:51;;;;;;;6.27;4.40;;;28.50;51.00;;;;;;10234055;28;20223;-71
2023/06/07 10:15:55;;;;;;;7.87;4.10;;;27.90;52.20;;;;;;10226827;28;20669;-71
2023/06/07 10:21:00;;;;;;;4.47;3.80;;;27.80;53.40;;;;;;10235504;28;20231;-71
2023/06/07 10:26:11;;;;;;;8.80;4.00;;;27.60;53.20;;;;;;10226626;28;20247;-72
2023/06/07 10:31:15;;;;;;;8.73;3.90;;;27.50;54.00;;;;;;10224422;28;20243;-72
2023/06/07 10:36:19;;;;;;;7.53;4.17;;;28.30;53.50;;;;;;10217923;28;20273;-72
2023/06/07 10:41:19;;;;;;;4.27;3.60;;;30.10;50.70;;;;;;10222940;28;20285;-72
2023/06/07 10:46:23;;;;;;;4.20;3.57;;;30.80;47.20;;;;;;10221294;28;20640;-72
2023/06/07 10:51:48;;;;;;;5.87;3.97;;;30.90;47.20;;;;;;10229012;28;20589;-71
2023/06/07 10:56:51;;;;;;;7.73;4.37;;;29.40;50.10;;;;;;10233342;28;20657;-71
2023/06/07 11:01:54;;;;;;;9.47;3.30;;;29.50;50.20;;;;;;10218145;28;20339;-71
2023/06/07 11:07:22;;;;;;;5.87;3.23;;;29.10;51.00;;;;;;10226110;28;20612;-72
2023/06/07 11:12:40;;;;;;;3.20;2.97;;;30.10;49.50;;;;;;10229764;28;20227;-72
2023/06/07 11:17:55;;;;;;;8.80;3.87;;;31.30;46.90;;;;;;10225753;28;20246;-71
2023/06/07 11:23:26;;;;;;;4.73;3.03;;;31.90;45.90;;;;;;10226484;28;20230;-71
2023/06/07 11:28:33;;;;;;;4.53;3.33;;;36.10;40.50;;;;;;10223083;28;20730;-71
2023/06/07 11:33:34;;;;;;;4.87;3.50;;;35.00;39.90;;;;;;10222063;28;20236;-71
2023/06/07 11:38:37;;;;;;;3.90;3.50;;;33.70;43.10;;;;;;10226752;28;20638;-71
2023/06/07 11:43:39;;;;;;;8.03;3.33;;;32.30;44.60;;;;;;10226403;28;20660;-71
2023/06/07 11:48:39;;;;;;;5.47;3.70;;;29.80;48.60;;;;;;10224629;28;20207;-71
2023/06/07 11:53:41;;;;;;;4.30;3.77;;;29.20;51.30;;;;;;10224322;28;20590;-71
2023/06/07 11:58:41;;;;;;;3.50;3.30;;;28.70;51.90;;;;;;10217957;28;20230;-71
2023/06/07 12:03:42;;;;;;;3.93;3.53;;;28.60;51.90;;;;;;10230331;28;20226;-71
2023/06/07 12:08:42;;;;;;;5.67;3.93;;;27.80;53.30;;;;;;10217410;28;20228;-72
2023/06/07 12:13:43;;;;;;;4.03;3.47;;;27.50;54.30;;;;;;10216427;28;20307;-72
2023/06/07 12:18:44;;;;;;;4.37;3.43;;;27.70;53.80;;;;;;10222906;28;20223;-71
2023/06/07 12:23:50;;;;;;;5.47;3.57;;;27.60;53.40;;;;;;10229645;28;20288;-71
2023/06/07 12:28:51;;;;;;;4.20;3.80;;;27.30;53.80;;;;;;10216173;28;20695;-71
2023/06/07 12:33:56;;;;;;;3.77;3.37;;;27.10;55.80;;;;;;10223490;28;20232;-71
2023/06/07 12:39:03;;;;;;;3.80;3.50;;;26.90;54.40;;;;;;10216575;28;20680;-72
2023/06/07 12:44:06;;;;;;;4.10;3.33;;;27.00;54.10;;;;;;10221863;28;20582;-71
2023/06/07 12:49:06;;;;;;;3.73;3.30;;;27.60;53.80;;;;;;10240580;28;20238;-71
2023/06/07 12:54:07;;;;;;;4.10;3.20;;;27.70;52.50;;;;;;10231180;28;20321;-71
2023/06/07 12:59:08;;;;;;;3.77;3.47;;;27.40;53.20;;;;;;10234681;28;20219;-72
2023/06/07 13:04:08;;;;;;;13.07;4.23;;;26.70;54.70;;;;;;10238924;28;20313;-71
2023/06/07 13:09:09;;;;;;;4.23;3.43;;;26.50;56.20;;;;;;10236700;28;20226;-71
2023/06/07 13:14:10;;;;;;;5.10;3.20;;;27.00;54.70;;;;;;10235994;28;21143;-71
2023/06/07 13:19:10;;;;;;;4.43;3.30;;;27.30;53.60;;;;;;10233673;28;20254;-72
2023/06/07 13:24:11;;;;;;;4.03;3.43;;;27.30;54.00;;;;;;10240289;28;20223;-71
2023/06/07 13:29:11;;;;;;;4.93;3.23;;;27.20;53.60;;;;;;10231406;28;20319;-71
2023/06/07 13:34:12;;;;;;;7.50;3.50;;;27.30;54.80;;;;;;10231025;28;20255;-72
2023/06/07 13:39:13;;;;;;;15.77;4.63;;;27.20;54.00;;;;;;10248696;28;20219;-72
2023/06/07 13:44:14;;;;;;;4.37;3.10;;;26.80;54.60;;;;;;10232129;28;20231;-73
2023/06/07 13:49:15;;;;;;;3.77;3.43;;;27.00;54.60;;;;;;10241462;28;20254;-71
2023/06/07 13:54:15;;;;;;;5.17;3.40;;;27.30;53.80;;;;;;10231558;28;20326;-70
2023/06/07 13:59:16;;;;;;;3.33;3.03;;;27.10;54.30;;;;;;10224826;28;20590;-71
2023/06/07 14:04:16;;;;;;;3.97;3.30;;;27.00;54.10;;;;;;10220605;28;20231;-71
2023/06/07 14:09:18;;;;;;;4.20;3.10;;;26.90;53.60;;;;;;10232609;28;20235;-72
2023/06/07 14:14:19;;;;;;;3.90;3.40;;;26.60;54.60;;;;;;10228220;28;20233;-72
2023/06/07 14:19:20;;;;;;;3.53;3.23;;;26.60;53.80;;;;;;10229635;28;20219;-72
2023/06/07 14:24:20;;;;;;;4.40;3.07;;;26.80;53.30;;;;;;10230240;28;20602;-72
2023/06/07 14:29:21;;;;;;;3.80;3.40;;;26.80;54.10;;;;;;10227721;28;20850;-70
2023/06/07 14:34:21;;;;;;;5.80;3.23;;;27.10;53.90;;;;;;10231200;28;20326;-71
2023/06/07 14:39:22;;;;;;;4.27;3.23;;;27.70;53.20;;;;;;10218301;28;20223;-72
2023/06/07 14:44:24;;;;;;;4.23;2.83;;;27.60;52.90;;;;;;10223180;28;20239;-71
2023/06/07 14:49:24;;;;;;;3.40;3.10;;;26.70;51.70;;;;;;10223156;28;20231;-72
2023/06/07 14:54:28;;;;;;;3.20;2.87;;;26.40;52.90;;;;;;10230186;28;20235;-71
2023/06/07 14:59:28;;;;;;;3.77;3.30;;;26.20;53.50;;;;;;10227984;28;20215;-72
2023/06/07 15:04:29;;;;;;;4.57;3.50;;;26.10;54.70;;;;;;10223749;28;20218;-71
2023/06/07 15:09:31;;;;;;;4.63;3.20;;;26.00;55.30;;;;;;10227133;28;20258;-71
2023/06/07 15:14:32;;;;;;;3.70;3.40;;;26.10;55.10;;;;;;10223727;28;20227;-72
2023/06/07 15:19:33;;;;;;;4.33;3.30;;;26.40;54.90;;;;;;10220001;28;20250;-72
2023/06/07 15:24:33;;;;;;;3.60;3.30;;;26.70;53.70;;;;;;10223870;28;20258;-71
2023/06/07 15:29:34;;;;;;;4.53;3.80;;;27.00;53.40;;;;;;10229299;28;20233;-75
2023/06/07 15:34:35;;;;;;;4.77;3.30;;;26.70;55.90;;;;;;10225204;28;20282;-70
2023/06/07 15:39:39;;;;;;;8.53;3.73;;;26.30;56.60;;;;;;10232776;28;20222;-72
2023/06/07 15:44:41;;;;;;;5.13;3.60;;;26.00;57.60;;;;;;10224969;28;20266;-72
2023/06/07 15:49:42;;;;;;;3.90;3.50;;;25.80;57.70;;;;;;10223831;28;20281;-73
2023/06/07 15:54:43;;;;;;;7.07;3.80;;;25.80;57.60;;;;;;10227495;28;20654;-71
2023/06/07 15:59:44;;;;;;;4.10;3.70;;;26.20;57.10;;;;;;10223776;28;20799;-71
2023/06/07 16:04:45;;;;;;;4.63;3.67;;;26.40;56.10;;;;;;10227000;28;20229;-72
2023/06/07 16:09:45;;;;;;;5.43;3.50;;;26.40;56.10;;;;;;10217081;28;20245;-71
2023/06/07 16:14:46;;;;;;;5.33;3.73;;;26.50;54.50;;;;;;10231168;28;20220;-72
2023/06/07 16:19:46;;;;;;;5.53;3.80;;;26.80;56.70;;;;;;10223359;28;20226;-72
2023/06/07 16:24:47;;;;;;;6.87;4.00;;;27.20;56.70;;;;;;10223700;28;20226;-72
2023/06/07 16:29:47;;;;;;;5.00;3.50;;;27.00;57.80;;;;;;10224288;28;20314;-70
2023/06/07 16:34:48;;;;;;;5.13;3.93;;;26.50;59.40;;;;;;10222560;28;20227;-72
2023/06/07 16:39:49;;;;;;;5.70;4.07;;;26.10;59.90;;;;;;10223979;28;20764;-73
2023/06/07 16:44:49;;;;;;;5.43;3.77;;;25.60;61.20;;;;;;10222135;28;20249;-71
2023/06/07 16:49:53;;;;;;;4.60;4.07;;;25.40;61.60;;;;;;10223345;28;20231;-71
2023/06/07 16:54:54;;;;;;;5.10;4.23;;;25.00;63.00;;;;;;10215357;28;20232;-71
2023/06/07 16:59:54;;;;;;;4.63;3.90;;;24.80;63.50;;;;;;10215403;28;20220;-71
2023/06/07 17:04:55;;;;;;;4.40;4.00;;;24.70;64.10;;;;;;10222615;28;20247;-71
2023/06/07 17:09:55;;;;;;;4.23;3.83;;;24.70;64.10;;;;;;10222494;28;20220;-72
2023/06/07 17:14:56;;;;;;;4.83;4.17;;;24.70;63.80;;;;;;10222131;28;20227;-71
2023/06/07 17:19:57;;;;;;;4.80;3.80;;;24.80;64.30;;;;;;10215063;28;20230;-71
2023/06/07 17:24:57;;;;;;;5.37;4.13;;;24.80;63.60;;;;;;10229010;28;20274;-71
2023/06/07 17:29:58;;;;;;;3.97;3.67;;;25.00;63.00;;;;;;10230059;28;20226;-72
2023/06/07 17:34:59;;;;;;;6.43;4.30;;;25.00;63.50;;;;;;10232679;28;20246;-72
2023/06/07 17:40:00;;;;;;;4.57;4.17;;;25.00;64.10;;;;;;10223104;28;20232;-71
2023/06/07 17:45:00;;;;;;;6.57;4.70;;;24.90;65.60;;;;;;10228638;28;20239;-71
2023/06/07 17:50:01;;;;;;;6.30;4.43;;;24.70;65.70;;;;;;10236979;28;20695;-71
2023/06/07 17:55:02;;;;;;;4.83;4.43;;;24.80;66.40;;;;;;10227724;28;20238;-71
2023/06/07 18:00:03;;;;;;;5.43;5.03;;;24.70;66.70;;;;;;10229371;28;20370;-70
2023/06/07 18:05:04;;;;;;;6.03;4.60;;;24.70;67.10;;;;;;10233448;28;20216;-71
2023/06/07 18:10:05;;;;;;;4.57;4.17;;;24.60;67.30;;;;;;10234112;28;20215;-72
2023/06/07 18:15:12;;;;;;;5.47;4.97;;;24.50;67.90;;;;;;10222289;28;20208;-71
2023/06/07 18:20:13;;;;;;;5.87;5.10;;;24.50;68.10;;;;;;10228119;28;20193;-71
2023/06/07 18:25:13;;;;;;;6.30;5.20;;;24.30;68.50;;;;;;10227792;28;20665;-72
2023/06/07 18:30:14;;;;;;;6.57;4.90;;;24.30;69.00;;;;;;10230979;28;20191;-71
2023/06/07 18:35:15;;;;;;;5.20;4.70;;;24.20;69.90;;;;;;10227246;28;20212;-71
2023/06/07 18:40:15;;;;;;;5.87;5.37;;;24.00;71.00;;;;;;10222596;28;20565;-71
2023/06/07 18:45:16;;;;;;;5.93;5.43;;;23.90;71.60;;;;;;10223380;28;20647;-72
2023/06/07 18:50:16;;;;;;;5.57;5.07;;;23.80;72.20;;;;;;10228953;28;20200;-70
2023/06/07 18:55:17;;;;;;;10.13;5.80;;;23.60;72.90;;;;;;10223244;28;20213;-71
2023/06/07 19:00:18;;;;;;;7.87;5.43;;;23.50;73.90;;;;;;10235518;28;20192;-71
2023/06/07 19:05:20;;;;;;;6.27;4.87;;;23.30;74.20;;;;;;10235835;28;20187;-71
2023/06/07 19:10:21;;;;;;;5.50;5.00;;;23.20;75.00;;;;;;10222769;28;20187;-71
2023/06/07 19:15:22;;;;;;;6.40;5.10;;;23.10;75.80;;;;;;10221927;28;20216;-71
2023/06/07 19:20:22;;;;;;;6.47;4.63;;;22.90;76.70;;;;;;10226211;28;20216;-71
2023/06/07 19:25:23;;;;;;;9.07;5.37;;;22.80;77.70;;;;;;10228034;28;20582;-71
2023/06/07 19:30:23;;;;;;;6.47;5.80;;;22.60;78.50;;;;;;10226479;28;20254;-71
2023/06/07 19:35:25;;;;;;;6.20;5.60;;;22.60;79.30;;;;;;10220597;28;20235;-72
2023/06/07 19:40:26;;;;;;;7.73;5.87;;;22.50;80.40;;;;;;10233147;28;20237;-71
2023/06/07 19:45:26;;;;;;;6.97;5.37;;;22.50;81.20;;;;;;10227495;28;20219;-72
2023/06/07 19:50:27;;;;;;;7.17;5.17;;;22.40;81.90;;;;;;10222616;28;20217;-71
2023/06/07 19:55:28;;;;;;;7.47;5.77;;;22.40;82.50;;;;;;10239808;28;20799;-71
2023/06/07 20:00:30;;;;;;;6.30;5.60;;;22.40;83.20;;;;;;10221015;28;20305;-71
2023/06/07 20:05:30;;;;;;;6.80;6.10;;;22.30;84.00;;;;;;10220093;28;20227;-71
2023/06/07 20:10:31;;;;;;;7.33;6.73;;;22.20;84.90;;;;;;10220305;28;20231;-72
2023/06/07 20:15:32;;;;;;;6.87;6.17;;;22.00;85.90;;;;;;10224895;28;20231;-72
2023/06/07 20:20:33;;;;;;;7.43;6.13;;;21.90;86.90;;;;;;10228957;28;20254;-71
2023/06/07 20:25:33;;;;;;;9.63;6.70;;;21.80;87.90;;;;;;10215668;28;20257;-73
2023/06/07 20:30:37;;;;;;;6.80;6.13;;;21.70;88.60;;;;;;10223290;28;20227;-72
2023/06/07 20:35:37;;;;;;;7.60;6.17;;;21.60;89.30;;;;;;10218483;28;20691;-72
2023/06/07 20:40:38;;;;;;;8.20;6.30;;;21.50;89.20;;;;;;10221859;28;20227;-71
2023/06/07 20:45:41;;;;;;;10.03;6.10;;;21.50;89.20;;;;;;10214709;28;20702;-71
2023/06/07 20:50:42;;;;;;;6.60;5.50;;;21.40;89.10;;;;;;10223789;28;20235;-72
2023/06/07 20:55:42;;;;;;;7.07;5.57;;;21.30;89.50;;;;;;10214749;28;20231;-71
2023/06/07 21:00:43;;;;;;;6.63;5.73;;;21.30;90.00;;;;;;10228637;28;20263;-72
2023/06/07 21:05:43;;;;;;;8.33;5.40;;;21.10;90.10;;;;;;10214272;28;20223;-71
2023/06/07 21:10:45;;;;;;;6.67;5.50;;;21.10;90.20;;;;;;10229160;28;20638;-71
2023/06/07 21:15:46;;;;;;;7.57;5.70;;;21.00;90.20;;;;;;10222584;28;20262;-72
2023/06/07 21:20:46;;;;;;;8.00;5.97;;;21.00;90.30;;;;;;10234664;28;20254;-72
2023/06/07 21:25:47;;;;;;;6.03;5.37;;;20.90;90.60;;;;;;10230195;28;20303;-72
2023/06/07 21:30:48;;;;;;;8.13;5.50;;;20.90;91.00;;;;;;10221942;28;20224;-71
2023/06/07 21:35:48;;;;;;;7.37;6.13;;;20.80;91.30;;;;;;10230078;28;20235;-72
2023/06/07 21:40:49;;;;;;;8.27;5.90;;;20.70;91.70;;;;;;10231444;28;20238;-70
2023/06/07 21:45:50;;;;;;;7.63;5.30;;;20.60;92.00;;;;;;10231701;28;20223;-72
2023/06/07 21:50:50;;;;;;;8.37;5.60;;;20.50;92.20;;;;;;10228068;28;20231;-72
2023/06/07 21:55:51;;;;;;;7.17;5.27;;;20.50;92.60;;;;;;10229076;28;20847;-70
2023/06/07 22:00:51;;;;;;;7.67;5.57;;;20.40;92.70;;;;;;10243259;28;20675;-72
2023/06/07 22:05:52;;;;;;;8.10;5.60;;;20.30;93.00;;;;;;10227907;28;20227;-72
2023/06/07 22:10:52;;;;;;;6.63;5.50;;;20.20;93.30;;;;;;10221119;28;20234;-71
2023/06/07 22:15:53;;;;;;;8.47;6.03;;;20.20;93.70;;;;;;10236341;28;20666;-71
2023/06/07 22:20:56;;;;;;;9.07;5.97;;;20.10;94.10;;;;;;10220141;28;20234;-72
2023/06/07 22:25:57;;;;;;;6.07;4.77;;;20.00;94.50;;;;;;10234356;28;20694;-72
2023/06/07 22:30:57;;;;;;;5.90;5.20;;;20.00;94.90;;;;;;10234194;28;20224;-71
2023/06/07 22:35:58;;;;;;;9.50;5.23;;;19.90;95.10;;;;;;10227787;28;20266;-71
2023/06/07 22:40:59;;;;;;;9.23;5.50;;;19.90;95.30;;;;;;10227485;28;20227;-71
2023/06/07 22:45:59;;;;;;;9.50;5.47;;;19.90;95.30;;;;;;10227264;28;20227;-71
2023/06/07 22:51:04;;;;;;;5.67;5.10;;;19.90;95.60;;;;;;10233125;28;20219;-71
2023/06/07 22:56:04;;;;;;;6.90;5.47;;;19.90;95.80;;;;;;10220489;28;20236;-71
2023/06/07 23:01:05;;;;;;;6.17;5.13;;;19.90;96.20;;;;;;10225452;28;20278;-70
2023/06/07 23:06:05;;;;;;;7.47;5.20;;;19.80;96.50;;;;;;10227130;28;20235;-71
2023/06/07 23:11:06;;;;;;;7.13;5.37;;;19.80;97.30;;;;;;10237906;28;20302;-71
2023/06/07 23:16:07;;;;;;;7.37;5.60;;;19.70;97.50;;;;;;10220291;28;20235;-71
2023/06/07 23:21:08;;;;;;;7.70;5.17;;;19.70;97.70;;;;;;10223925;28;20227;-71
2023/06/07 23:26:09;;;;;;;6.67;4.93;;;19.60;98.00;;;;;;10220947;28;20299;-71
2023/06/07 23:31:10;;;;;;;6.03;5.40;;;19.60;98.50;;;;;;10223778;28;20310;-71
2023/06/07 23:36:12;;;;;;;9.00;5.20;;;19.60;98.80;;;;;;10224957;28;20327;-71
2023/06/07 23:41:13;;;;;;;7.70;4.77;;;19.60;99.10;;;;;;10224425;28;20266;-71
2023/06/07 23:46:13;;;;;;;7.10;5.57;;;19.50;99.50;;;;;;10217666;28;20280;-71
2023/06/07 23:51:15;;;;;;;6.57;5.83;;;19.40;99.80;;;;;;10231620;28;20251;-72
2023/06/07 23:56:16;;;;;;;7.33;5.57;;;19.30;99.90;;;;;;10224769;28;20246;-72
